PGT557Q EDDW-LTAI
Flight info
| Callsign | PGT557Q |
|---|---|
| Flight time | N/A |
| Altitude | 35000 |
| Route | NIE2M NIE Z88 SAS DCT NOMKA DCT TABAT DCT ARMUT DCT LULAR DCT DEXIT DCT SASAL DCT BABIT DCT NEPOS DCT NISVA N131 USALI/N0448F370 N131 RODIP UN131 KOZLU |
| Aircraft | A320/M-SDE3FGHIRWY/LB1 |
Departure
| Time | 2026-04-27 08:49 |
|---|---|
| Airport | Bremen Airport (EDDW) |
Arrival
| Time | N/A |
|---|---|
| Airport | Antalya International Airport (LTAI) |
| Time | Latitude | Longitude | Altitude | Speed | Heading |
|---|---|---|---|---|---|
| 2026-04-27 08:27 | 53.05204 | 8.78470 | 22 ft | 0 kts | 37° |
| 2026-04-27 08:38 | 53.05187 | 8.78450 | 22 ft | 4 kts | 33° |
| 2026-04-27 08:38 | 53.05164 | 8.78429 | 24 ft | 4 kts | 20° |
| 2026-04-27 08:38 | 53.05139 | 8.78422 | 25 ft | 4 kts | 337° |
| 2026-04-27 08:38 | 53.05130 | 8.78431 | 24 ft | 0 kts | 307° |
| 2026-04-27 08:45 | 53.05141 | 8.78406 | 24 ft | 4 kts | 307° |
| 2026-04-27 08:45 | 53.05153 | 8.78375 | 23 ft | 3 kts | 300° |
| 2026-04-27 08:45 | 53.05166 | 8.78330 | 22 ft | 7 kts | 294° |
| 2026-04-27 08:46 | 53.05185 | 8.78232 | 22 ft | 10 kts | 283° |
| 2026-04-27 08:46 | 53.05196 | 8.78125 | 22 ft | 9 kts | 269° |
| 2026-04-27 08:46 | 53.05160 | 8.77978 | 22 ft | 20 kts | 240° |
| 2026-04-27 08:46 | 53.05075 | 8.77815 | 22 ft | 18 kts | 227° |
| 2026-04-27 08:47 | 53.04997 | 8.77674 | 23 ft | 16 kts | 227° |
| 2026-04-27 08:47 | 53.04922 | 8.77547 | 22 ft | 16 kts | 219° |
| 2026-04-27 08:47 | 53.04827 | 8.77465 | 24 ft | 14 kts | 196° |
| 2026-04-27 08:47 | 53.04740 | 8.77449 | 23 ft | 11 kts | 177° |
| 2026-04-27 08:48 | 53.04668 | 8.77475 | 21 ft | 9 kts | 156° |
| 2026-04-27 08:48 | 53.04658 | 8.77591 | 22 ft | 17 kts | 86° |
| 2026-04-27 08:48 | 53.04675 | 8.78183 | 21 ft | 90 kts | 88° |
| 2026-04-27 08:48 | 53.04706 | 8.79597 | 25 ft | 152 kts | 88° |
| 2026-04-27 08:49 | 53.04720 | 8.81457 | 591 ft | 165 kts | 88° |
| 2026-04-27 08:49 | 53.04761 | 8.83434 | 1214 ft | 182 kts | 85° |
| 2026-04-27 08:49 | 53.04806 | 8.85667 | 1769 ft | 206 kts | 96° |
| 2026-04-27 08:49 | 53.04180 | 8.87925 | 2328 ft | 230 kts | 123° |
| 2026-04-27 08:50 | 53.03007 | 8.89922 | 2964 ft | 255 kts | 147° |
| 2026-04-27 08:50 | 53.01491 | 8.91574 | 3948 ft | 264 kts | 146° |
| 2026-04-27 08:50 | 52.99959 | 8.93323 | 4983 ft | 270 kts | 144° |
| 2026-04-27 08:50 | 52.98405 | 8.95142 | 6002 ft | 276 kts | 144° |
| 2026-04-27 08:51 | 52.96829 | 8.97012 | 6813 ft | 282 kts | 143° |
| 2026-04-27 08:51 | 52.95221 | 8.98924 | 7562 ft | 287 kts | 144° |
| 2026-04-27 08:51 | 52.93611 | 9.00837 | 8323 ft | 291 kts | 144° |
| 2026-04-27 08:51 | 52.91934 | 9.02830 | 9099 ft | 295 kts | 144° |
| 2026-04-27 08:52 | 52.90252 | 9.04824 | 9850 ft | 299 kts | 144° |
| 2026-04-27 08:52 | 52.88528 | 9.06864 | 10367 ft | 314 kts | 144° |
| 2026-04-27 08:52 | 52.86683 | 9.09042 | 10562 ft | 338 kts | 144° |
| 2026-04-27 08:52 | 52.84730 | 9.11345 | 10722 ft | 360 kts | 144° |
| 2026-04-27 08:53 | 52.82605 | 9.13847 | 10982 ft | 377 kts | 144° |
| 2026-04-27 08:53 | 52.80476 | 9.16345 | 11554 ft | 383 kts | 144° |
| 2026-04-27 08:53 | 52.78287 | 9.18905 | 12189 ft | 387 kts | 144° |
| 2026-04-27 08:53 | 52.76074 | 9.21488 | 12837 ft | 392 kts | 144° |
| 2026-04-27 08:54 | 52.73839 | 9.24098 | 13465 ft | 396 kts | 144° |
| 2026-04-27 08:54 | 52.71581 | 9.26735 | 14074 ft | 400 kts | 144° |
| 2026-04-27 08:54 | 52.69302 | 9.29400 | 14622 ft | 404 kts | 145° |
| 2026-04-27 08:54 | 52.67001 | 9.32086 | 15175 ft | 407 kts | 145° |
| 2026-04-27 08:55 | 52.64688 | 9.34778 | 15743 ft | 409 kts | 145° |
| 2026-04-27 08:55 | 52.62355 | 9.37504 | 16285 ft | 412 kts | 144° |
| 2026-04-27 08:55 | 52.60075 | 9.40379 | 16821 ft | 415 kts | 142° |
| 2026-04-27 08:55 | 52.57842 | 9.43410 | 17354 ft | 418 kts | 140° |
| 2026-04-27 08:56 | 52.55612 | 9.46517 | 17879 ft | 420 kts | 143° |
| 2026-04-27 08:56 | 52.53216 | 9.49273 | 18408 ft | 422 kts | 147° |
| 2026-04-27 08:56 | 52.50770 | 9.51956 | 18891 ft | 424 kts | 148° |
| 2026-04-27 08:56 | 52.48295 | 9.54628 | 19314 ft | 427 kts | 148° |
| 2026-04-27 08:57 | 52.43287 | 9.60014 | 20124 ft | 434 kts | 148° |
| 2026-04-27 08:57 | 52.40756 | 9.62741 | 20525 ft | 437 kts | 148° |
| 2026-04-27 08:57 | 52.38210 | 9.65492 | 20920 ft | 440 kts | 148° |
| 2026-04-27 08:58 | 52.35648 | 9.68259 | 21296 ft | 443 kts | 148° |
| 2026-04-27 08:58 | 52.33070 | 9.71041 | 21686 ft | 446 kts | 148° |
| 2026-04-27 08:58 | 52.30475 | 9.73837 | 22067 ft | 448 kts | 148° |
| 2026-04-27 08:58 | 52.27897 | 9.76615 | 22432 ft | 451 kts | 148° |
| 2026-04-27 08:59 | 52.25267 | 9.79444 | 22800 ft | 454 kts | 149° |
| 2026-04-27 08:59 | 52.22617 | 9.82286 | 23163 ft | 457 kts | 149° |
| 2026-04-27 08:59 | 52.19950 | 9.85139 | 23515 ft | 460 kts | 149° |
| 2026-04-27 08:59 | 52.17264 | 9.88005 | 23864 ft | 463 kts | 149° |
| 2026-04-27 09:00 | 52.14557 | 9.90885 | 24114 ft | 467 kts | 149° |
| 2026-04-27 09:00 | 52.11830 | 9.93786 | 24397 ft | 470 kts | 149° |
| 2026-04-27 09:00 | 52.09085 | 9.96703 | 24685 ft | 472 kts | 149° |
| 2026-04-27 09:00 | 52.06328 | 9.99629 | 25001 ft | 473 kts | 149° |
| 2026-04-27 09:01 | 52.03566 | 10.02561 | 25300 ft | 475 kts | 149° |
| 2026-04-27 09:01 | 52.00793 | 10.05500 | 25581 ft | 477 kts | 149° |
| 2026-04-27 09:01 | 51.98005 | 10.08446 | 25853 ft | 479 kts | 149° |
| 2026-04-27 09:01 | 51.95203 | 10.11401 | 26116 ft | 481 kts | 149° |
| 2026-04-27 09:02 | 51.92394 | 10.14366 | 26375 ft | 483 kts | 149° |
| 2026-04-27 09:02 | 51.89571 | 10.17344 | 26639 ft | 485 kts | 149° |
| 2026-04-27 09:02 | 51.86733 | 10.20325 | 26895 ft | 487 kts | 149° |
| 2026-04-27 09:02 | 51.83881 | 10.23313 | 27154 ft | 489 kts | 149° |
| 2026-04-27 09:03 | 51.81018 | 10.26307 | 27403 ft | 491 kts | 149° |
| 2026-04-27 09:03 | 51.78146 | 10.29309 | 27652 ft | 493 kts | 149° |
| 2026-04-27 09:03 | 51.75270 | 10.32317 | 27995 ft | 492 kts | 149° |
| 2026-04-27 09:03 | 51.72398 | 10.35319 | 28352 ft | 492 kts | 149° |
| 2026-04-27 09:04 | 51.69526 | 10.38310 | 28705 ft | 491 kts | 150° |
| 2026-04-27 09:04 | 51.66652 | 10.41293 | 29054 ft | 491 kts | 150° |
| 2026-04-27 09:04 | 51.63781 | 10.44273 | 29399 ft | 491 kts | 150° |
| 2026-04-27 09:04 | 51.60915 | 10.47247 | 29744 ft | 490 kts | 150° |
| 2026-04-27 09:05 | 51.58046 | 10.50219 | 30104 ft | 490 kts | 150° |
| 2026-04-27 09:05 | 51.55185 | 10.53178 | 30426 ft | 489 kts | 150° |
| 2026-04-27 09:05 | 51.52320 | 10.56131 | 30748 ft | 488 kts | 150° |
| 2026-04-27 09:05 | 51.49459 | 10.59075 | 31058 ft | 488 kts | 150° |
| 2026-04-27 09:06 | 51.46608 | 10.62009 | 31365 ft | 487 kts | 150° |
| 2026-04-27 09:06 | 51.43750 | 10.64948 | 31609 ft | 488 kts | 150° |
| 2026-04-27 09:06 | 51.40932 | 10.67839 | 31893 ft | 488 kts | 150° |
| 2026-04-27 09:06 | 51.38074 | 10.70768 | 32182 ft | 487 kts | 150° |
| 2026-04-27 09:07 | 51.35219 | 10.73688 | 32478 ft | 487 kts | 150° |
| 2026-04-27 09:07 | 51.32363 | 10.76603 | 32786 ft | 487 kts | 150° |
| 2026-04-27 09:07 | 51.29511 | 10.79509 | 33056 ft | 486 kts | 150° |
| 2026-04-27 09:07 | 51.26661 | 10.82407 | 33353 ft | 485 kts | 150° |
| 2026-04-27 09:08 | 51.23816 | 10.85297 | 33646 ft | 485 kts | 150° |
| 2026-04-27 09:08 | 51.20965 | 10.88183 | 33930 ft | 485 kts | 150° |
| 2026-04-27 09:08 | 51.18119 | 10.91064 | 34222 ft | 484 kts | 150° |
| 2026-04-27 09:08 | 51.15279 | 10.93939 | 34481 ft | 484 kts | 150° |
| 2026-04-27 09:09 | 51.12438 | 10.96813 | 34740 ft | 483 kts | 150° |
| 2026-04-27 09:09 | 51.09597 | 10.99683 | 34946 ft | 484 kts | 150° |
| 2026-04-27 09:09 | 51.06753 | 11.02552 | 35169 ft | 484 kts | 150° |
| 2026-04-27 09:10 | 51.01046 | 11.08288 | 35302 ft | 487 kts | 150° |
| 2026-04-27 09:10 | 50.95316 | 11.14026 | 35300 ft | 487 kts | 150° |
| 2026-04-27 09:11 | 50.89580 | 11.19745 | 35295 ft | 487 kts | 150° |
| 2026-04-27 09:11 | 50.83840 | 11.25459 | 35276 ft | 487 kts | 150° |
| 2026-04-27 09:12 | 50.78100 | 11.31169 | 35264 ft | 487 kts | 150° |
| 2026-04-27 09:12 | 50.72360 | 11.36861 | 35263 ft | 488 kts | 150° |
| 2026-04-27 09:13 | 50.66601 | 11.42540 | 35270 ft | 488 kts | 150° |
| 2026-04-27 09:13 | 50.60844 | 11.48207 | 35269 ft | 488 kts | 150° |
| 2026-04-27 09:14 | 50.55083 | 11.53867 | 35268 ft | 488 kts | 150° |
| 2026-04-27 09:14 | 50.49304 | 11.59477 | 35272 ft | 488 kts | 150° |
| 2026-04-27 09:15 | 50.43506 | 11.65037 | 35285 ft | 488 kts | 150° |
| 2026-04-27 09:15 | 50.37704 | 11.70593 | 35273 ft | 489 kts | 150° |
| 2026-04-27 09:16 | 50.31888 | 11.76146 | 35272 ft | 490 kts | 150° |
| 2026-04-27 09:16 | 50.26074 | 11.81702 | 35257 ft | 490 kts | 150° |
| 2026-04-27 09:17 | 50.21245 | 11.86312 | 35268 ft | 490 kts | 150° |
| 2026-04-27 09:17 | 50.15424 | 11.91850 | 35284 ft | 489 kts | 150° |
| 2026-04-27 09:18 | 50.09605 | 11.97346 | 35293 ft | 489 kts | 150° |
| 2026-04-27 09:18 | 50.03775 | 12.02842 | 35269 ft | 490 kts | 150° |
| 2026-04-27 09:19 | 49.97944 | 12.08330 | 35261 ft | 490 kts | 150° |
| 2026-04-27 09:19 | 49.92114 | 12.13809 | 35258 ft | 490 kts | 150° |
| 2026-04-27 09:20 | 49.86321 | 12.19234 | 35261 ft | 490 kts | 150° |
| 2026-04-27 09:20 | 49.80484 | 12.24674 | 35262 ft | 489 kts | 150° |
| 2026-04-27 09:21 | 49.74647 | 12.30100 | 35263 ft | 489 kts | 150° |
| 2026-04-27 09:21 | 49.69105 | 12.36205 | 35260 ft | 490 kts | 142° |
| 2026-04-27 09:22 | 49.63775 | 12.42771 | 35264 ft | 490 kts | 142° |
| 2026-04-27 09:22 | 49.58440 | 12.49312 | 35266 ft | 490 kts | 142° |
| 2026-04-27 09:23 | 49.53088 | 12.55836 | 35263 ft | 490 kts | 142° |
| 2026-04-27 09:23 | 49.47741 | 12.62343 | 35275 ft | 490 kts | 142° |
| 2026-04-27 09:24 | 49.42393 | 12.68841 | 35271 ft | 490 kts | 142° |
| 2026-04-27 09:24 | 49.37060 | 12.75345 | 35270 ft | 490 kts | 139° |
| 2026-04-27 09:25 | 49.32282 | 12.82794 | 35268 ft | 490 kts | 133° |
| 2026-04-27 09:25 | 49.27574 | 12.90332 | 35257 ft | 490 kts | 134° |
| 2026-04-27 09:26 | 49.22847 | 12.97849 | 35240 ft | 490 kts | 134° |
| 2026-04-27 09:26 | 49.18131 | 13.05344 | 35253 ft | 489 kts | 134° |
| 2026-04-27 09:27 | 49.13416 | 13.12820 | 35260 ft | 488 kts | 134° |
| 2026-04-27 09:27 | 49.08701 | 13.20263 | 35256 ft | 488 kts | 134° |
| 2026-04-27 09:28 | 49.03979 | 13.27684 | 35255 ft | 487 kts | 134° |
| 2026-04-27 09:28 | 48.99258 | 13.35104 | 35251 ft | 488 kts | 134° |
| 2026-04-27 09:29 | 48.94536 | 13.42520 | 35234 ft | 488 kts | 134° |
| 2026-04-27 09:29 | 48.89843 | 13.49861 | 35236 ft | 487 kts | 134° |
| 2026-04-27 09:30 | 48.85077 | 13.57281 | 35239 ft | 487 kts | 134° |
| 2026-04-27 09:30 | 48.80370 | 13.64572 | 35238 ft | 487 kts | 134° |
| 2026-04-27 09:31 | 48.75710 | 13.72022 | 35240 ft | 486 kts | 127° |
| 2026-04-27 09:31 | 48.71582 | 13.80145 | 35238 ft | 487 kts | 127° |
| 2026-04-27 09:32 | 48.67447 | 13.88265 | 35216 ft | 487 kts | 127° |
| 2026-04-27 09:32 | 48.63294 | 13.96369 | 35233 ft | 487 kts | 127° |
| 2026-04-27 09:33 | 48.59141 | 14.04459 | 35250 ft | 487 kts | 126° |
| 2026-04-27 09:33 | 48.54991 | 14.12542 | 35240 ft | 487 kts | 127° |
| 2026-04-27 09:34 | 48.50824 | 14.20609 | 35247 ft | 487 kts | 127° |
| 2026-04-27 09:34 | 48.46645 | 14.28669 | 35247 ft | 488 kts | 127° |
| 2026-04-27 09:35 | 48.42472 | 14.36711 | 35266 ft | 488 kts | 126° |
| 2026-04-27 09:35 | 48.38280 | 14.44762 | 35234 ft | 488 kts | 126° |
| 2026-04-27 09:36 | 48.34082 | 14.52793 | 35240 ft | 488 kts | 127° |
| 2026-04-27 09:36 | 48.29876 | 14.60818 | 35242 ft | 489 kts | 127° |
| 2026-04-27 09:37 | 48.25663 | 14.68834 | 35241 ft | 489 kts | 127° |
| 2026-04-27 09:37 | 48.21451 | 14.76835 | 35255 ft | 489 kts | 126° |
| 2026-04-27 09:38 | 48.17225 | 14.84823 | 35248 ft | 489 kts | 127° |
| 2026-04-27 09:38 | 48.12992 | 14.92807 | 35245 ft | 489 kts | 127° |
| 2026-04-27 09:39 | 48.08755 | 15.00772 | 35231 ft | 489 kts | 127° |
| 2026-04-27 09:39 | 48.04511 | 15.08717 | 35248 ft | 489 kts | 126° |
| 2026-04-27 09:40 | 48.00260 | 15.16654 | 35247 ft | 489 kts | 127° |
| 2026-04-27 09:40 | 47.96005 | 15.24581 | 35244 ft | 489 kts | 127° |
| 2026-04-27 09:41 | 47.91754 | 15.32498 | 35241 ft | 489 kts | 126° |
| 2026-04-27 09:41 | 47.87522 | 15.40347 | 35251 ft | 489 kts | 127° |